sensor_id;sensor_type;location;lat;lon;timestamp;P1;durP1;ratioP1;P2;durP2;ratioP2
65863;SDS011;52639;51.180;20.460;2023-06-19T00:04:03;22.13;;;13.80;;
65863;SDS011;52639;51.180;20.460;2023-06-19T00:08:07;23.27;;;14.20;;
65863;SDS011;52639;51.180;20.460;2023-06-19T00:12:12;22.75;;;13.40;;
65863;SDS011;52639;51.180;20.460;2023-06-19T00:16:17;20.15;;;12.48;;
65863;SDS011;52639;51.180;20.460;2023-06-19T00:20:23;18.77;;;12.75;;
65863;SDS011;52639;51.180;20.460;2023-06-19T00:24:27;19.95;;;13.32;;
65863;SDS011;52639;51.180;20.460;2023-06-19T00:28:32;20.73;;;13.52;;
65863;SDS011;52639;51.180;20.460;2023-06-19T00:32:36;22.63;;;13.38;;
65863;SDS011;52639;51.180;20.460;2023-06-19T00:36:49;20.55;;;13.95;;
65863;SDS011;52639;51.180;20.460;2023-06-19T00:40:58;21.10;;;13.30;;
65863;SDS011;52639;51.180;20.460;2023-06-19T00:45:02;24.10;;;13.65;;
65863;SDS011;52639;51.180;20.460;2023-06-19T00:49:08;23.08;;;13.50;;
65863;SDS011;52639;51.180;20.460;2023-06-19T00:53:14;18.52;;;12.82;;
65863;SDS011;52639;51.180;20.460;2023-06-19T00:57:20;20.73;;;12.80;;
65863;SDS011;52639;51.180;20.460;2023-06-19T01:01:24;27.58;;;15.70;;
65863;SDS011;52639;51.180;20.460;2023-06-19T01:05:29;22.95;;;14.48;;
65863;SDS011;52639;51.180;20.460;2023-06-19T01:09:38;25.17;;;14.90;;
65863;SDS011;52639;51.180;20.460;2023-06-19T01:13:49;25.40;;;14.20;;
65863;SDS011;52639;51.180;20.460;2023-06-19T01:17:59;22.75;;;14.15;;
65863;SDS011;52639;51.180;20.460;2023-06-19T01:22:07;23.85;;;13.85;;
65863;SDS011;52639;51.180;20.460;2023-06-19T01:26:11;19.83;;;13.15;;
65863;SDS011;52639;51.180;20.460;2023-06-19T01:30:16;19.40;;;12.23;;
65863;SDS011;52639;51.180;20.460;2023-06-19T01:34:20;20.17;;;13.25;;
65863;SDS011;52639;51.180;20.460;2023-06-19T01:38:27;21.00;;;12.80;;
65863;SDS011;52639;51.180;20.460;2023-06-19T01:42:35;17.27;;;11.70;;
65863;SDS011;52639;51.180;20.460;2023-06-19T01:46:40;20.42;;;12.30;;
65863;SDS011;52639;51.180;20.460;2023-06-19T01:50:45;18.13;;;11.98;;
65863;SDS011;52639;51.180;20.460;2023-06-19T01:54:52;21.13;;;13.50;;
65863;SDS011;52639;51.180;20.460;2023-06-19T01:58:57;21.17;;;12.55;;
65863;SDS011;52639;51.180;20.460;2023-06-19T02:03:01;20.35;;;12.68;;
65863;SDS011;52639;51.180;20.460;2023-06-19T02:07:05;22.17;;;13.90;;
65863;SDS011;52639;51.180;20.460;2023-06-19T02:11:11;20.50;;;12.60;;
65863;SDS011;52639;51.180;20.460;2023-06-19T02:15:16;19.42;;;12.82;;
65863;SDS011;52639;51.180;20.460;2023-06-19T02:19:20;23.23;;;13.10;;
65863;SDS011;52639;51.180;20.460;2023-06-19T02:23:24;19.52;;;12.50;;
65863;SDS011;52639;51.180;20.460;2023-06-19T02:27:30;23.65;;;13.63;;
65863;SDS011;52639;51.180;20.460;2023-06-19T02:31:35;20.95;;;13.10;;
65863;SDS011;52639;51.180;20.460;2023-06-19T02:35:39;19.88;;;12.15;;
65863;SDS011;52639;51.180;20.460;2023-06-19T02:39:46;19.83;;;12.40;;
65863;SDS011;52639;51.180;20.460;2023-06-19T02:43:52;20.33;;;12.32;;
65863;SDS011;52639;51.180;20.460;2023-06-19T02:47:57;35.35;;;20.23;;
65863;SDS011;52639;51.180;20.460;2023-06-19T02:52:01;47.03;;;23.95;;
65863;SDS011;52639;51.180;20.460;2023-06-19T02:56:06;20.83;;;14.07;;
65863;SDS011;52639;51.180;20.460;2023-06-19T03:00:13;18.67;;;12.38;;
65863;SDS011;52639;51.180;20.460;2023-06-19T03:04:17;18.02;;;12.18;;
65863;SDS011;52639;51.180;20.460;2023-06-19T03:08:22;20.80;;;13.05;;
65863;SDS011;52639;51.180;20.460;2023-06-19T03:12:26;18.20;;;11.50;;
65863;SDS011;52639;51.180;20.460;2023-06-19T03:16:32;19.00;;;12.05;;
65863;SDS011;52639;51.180;20.460;2023-06-19T03:20:37;17.15;;;12.35;;
65863;SDS011;52639;51.180;20.460;2023-06-19T03:24:41;19.00;;;12.02;;
65863;SDS011;52639;51.180;20.460;2023-06-19T03:28:46;17.20;;;11.75;;
65863;SDS011;52639;51.180;20.460;2023-06-19T03:32:52;18.35;;;12.05;;
65863;SDS011;52639;51.180;20.460;2023-06-19T03:36:56;16.27;;;12.02;;
65863;SDS011;52639;51.180;20.460;2023-06-19T03:41:00;18.92;;;11.95;;
65863;SDS011;52639;51.180;20.460;2023-06-19T03:45:05;16.10;;;11.77;;
65863;SDS011;52639;51.180;20.460;2023-06-19T03:49:13;17.33;;;11.23;;
65863;SDS011;52639;51.180;20.460;2023-06-19T03:53:21;16.25;;;10.75;;
65863;SDS011;52639;51.180;20.460;2023-06-19T03:57:25;16.38;;;11.38;;
65863;SDS011;52639;51.180;20.460;2023-06-19T04:01:29;15.23;;;10.70;;
65863;SDS011;52639;51.180;20.460;2023-06-19T04:05:35;16.63;;;12.05;;
65863;SDS011;52639;51.180;20.460;2023-06-19T04:09:40;20.48;;;14.82;;
65863;SDS011;52639;51.180;20.460;2023-06-19T04:13:44;15.15;;;11.57;;
65863;SDS011;52639;51.180;20.460;2023-06-19T04:17:49;13.18;;;8.75;;
65863;SDS011;52639;51.180;20.460;2023-06-19T04:21:55;12.25;;;10.15;;
65863;SDS011;52639;51.180;20.460;2023-06-19T04:25:59;14.02;;;10.00;;
65863;SDS011;52639;51.180;20.460;2023-06-19T04:30:04;11.90;;;9.35;;
65863;SDS011;52639;51.180;20.460;2023-06-19T04:34:11;12.48;;;9.35;;
65863;SDS011;52639;51.180;20.460;2023-06-19T04:38:18;13.10;;;9.88;;
65863;SDS011;52639;51.180;20.460;2023-06-19T04:42:25;12.40;;;8.75;;
65863;SDS011;52639;51.180;20.460;2023-06-19T04:46:30;15.02;;;11.65;;
65863;SDS011;52639;51.180;20.460;2023-06-19T04:50:35;15.38;;;9.93;;
65863;SDS011;52639;51.180;20.460;2023-06-19T04:54:42;14.57;;;10.18;;
65863;SDS011;52639;51.180;20.460;2023-06-19T04:58:46;11.88;;;8.90;;
65863;SDS011;52639;51.180;20.460;2023-06-19T05:02:51;9.65;;;7.55;;
65863;SDS011;52639;51.180;20.460;2023-06-19T05:06:56;10.07;;;9.02;;
65863;SDS011;52639;51.180;20.460;2023-06-19T05:11:02;10.25;;;8.68;;
65863;SDS011;52639;51.180;20.460;2023-06-19T05:15:08;9.80;;;7.85;;
65863;SDS011;52639;51.180;20.460;2023-06-19T05:19:13;9.23;;;7.75;;
65863;SDS011;52639;51.180;20.460;2023-06-19T05:23:17;10.10;;;8.52;;
65863;SDS011;52639;51.180;20.460;2023-06-19T05:27:24;9.18;;;8.27;;
65863;SDS011;52639;51.180;20.460;2023-06-19T05:31:30;9.50;;;8.38;;
65863;SDS011;52639;51.180;20.460;2023-06-19T05:35:34;11.48;;;8.27;;
65863;SDS011;52639;51.180;20.460;2023-06-19T05:39:40;9.77;;;8.48;;
65863;SDS011;52639;51.180;20.460;2023-06-19T05:43:47;11.35;;;8.45;;
65863;SDS011;52639;51.180;20.460;2023-06-19T05:47:52;14.68;;;8.02;;
65863;SDS011;52639;51.180;20.460;2023-06-19T05:51:56;11.27;;;8.15;;
65863;SDS011;52639;51.180;20.460;2023-06-19T05:56:01;10.68;;;8.13;;
65863;SDS011;52639;51.180;20.460;2023-06-19T06:00:09;11.00;;;8.18;;
65863;SDS011;52639;51.180;20.460;2023-06-19T06:04:15;10.63;;;8.23;;
65863;SDS011;52639;51.180;20.460;2023-06-19T06:08:24;12.65;;;8.13;;
65863;SDS011;52639;51.180;20.460;2023-06-19T06:12:38;13.90;;;9.40;;
65863;SDS011;52639;51.180;20.460;2023-06-19T06:16:57;13.95;;;9.07;;
65863;SDS011;52639;51.180;20.460;2023-06-19T06:21:03;14.37;;;8.80;;
65863;SDS011;52639;51.180;20.460;2023-06-19T06:25:09;17.88;;;9.15;;
65863;SDS011;52639;51.180;20.460;2023-06-19T06:29:15;14.20;;;7.82;;
65863;SDS011;52639;51.180;20.460;2023-06-19T06:33:19;16.35;;;9.07;;
65863;SDS011;52639;51.180;20.460;2023-06-19T06:37:26;13.73;;;7.13;;
65863;SDS011;52639;51.180;20.460;2023-06-19T06:41:50;10.60;;;7.13;;
65863;SDS011;52639;51.180;20.460;2023-06-19T06:46:00;8.07;;;6.25;;
65863;SDS011;52639;51.180;20.460;2023-06-19T06:50:13;7.93;;;5.93;;
65863;SDS011;52639;51.180;20.460;2023-06-19T06:54:22;9.13;;;6.10;;
65863;SDS011;52639;51.180;20.460;2023-06-19T06:58:51;7.15;;;5.57;;
65863;SDS011;52639;51.180;20.460;2023-06-19T07:02:56;6.53;;;5.57;;
65863;SDS011;52639;51.180;20.460;2023-06-19T07:07:02;7.35;;;5.72;;
65863;SDS011;52639;51.180;20.460;2023-06-19T07:11:10;6.75;;;5.55;;
65863;SDS011;52639;51.180;20.460;2023-06-19T07:15:16;7.13;;;5.45;;
65863;SDS011;52639;51.180;20.460;2023-06-19T07:19:23;6.78;;;5.38;;
65863;SDS011;52639;51.180;20.460;2023-06-19T07:23:31;10.85;;;5.78;;
65863;SDS011;52639;51.180;20.460;2023-06-19T07:27:36;6.68;;;5.85;;
65863;SDS011;52639;51.180;20.460;2023-06-19T07:31:39;6.95;;;5.25;;
65863;SDS011;52639;51.180;20.460;2023-06-19T07:35:51;6.45;;;5.25;;
65863;SDS011;52639;51.180;20.460;2023-06-19T07:40:14;6.38;;;4.90;;
65863;SDS011;52639;51.180;20.460;2023-06-19T07:44:17;6.13;;;4.95;;
65863;SDS011;52639;51.180;20.460;2023-06-19T07:48:22;5.95;;;5.28;;
65863;SDS011;52639;51.180;20.460;2023-06-19T07:52:25;5.88;;;5.18;;
65863;SDS011;52639;51.180;20.460;2023-06-19T07:56:30;6.38;;;5.18;;
65863;SDS011;52639;51.180;20.460;2023-06-19T08:00:34;6.68;;;4.55;;
65863;SDS011;52639;51.180;20.460;2023-06-19T08:04:39;5.68;;;4.43;;
65863;SDS011;52639;51.180;20.460;2023-06-19T08:09:03;8.48;;;5.65;;
65863;SDS011;52639;51.180;20.460;2023-06-19T08:13:36;8.68;;;5.72;;
65863;SDS011;52639;51.180;20.460;2023-06-19T08:17:40;9.68;;;5.55;;
65863;SDS011;52639;51.180;20.460;2023-06-19T08:21:43;8.10;;;5.88;;
65863;SDS011;52639;51.180;20.460;2023-06-19T08:25:47;10.25;;;5.70;;
65863;SDS011;52639;51.180;20.460;2023-06-19T08:29:54;9.43;;;5.28;;
65863;SDS011;52639;51.180;20.460;2023-06-19T08:33:57;6.18;;;4.72;;
65863;SDS011;52639;51.180;20.460;2023-06-19T08:38:01;8.60;;;5.45;;
65863;SDS011;52639;51.180;20.460;2023-06-19T08:42:05;6.68;;;5.35;;
65863;SDS011;52639;51.180;20.460;2023-06-19T08:46:11;6.57;;;4.95;;
65863;SDS011;52639;51.180;20.460;2023-06-19T08:50:23;5.85;;;4.50;;
65863;SDS011;52639;51.180;20.460;2023-06-19T08:54:28;5.53;;;4.28;;
65863;SDS011;52639;51.180;20.460;2023-06-19T08:58:31;6.00;;;4.80;;
65863;SDS011;52639;51.180;20.460;2023-06-19T09:02:41;6.40;;;4.40;;
65863;SDS011;52639;51.180;20.460;2023-06-19T09:06:48;6.85;;;4.35;;
65863;SDS011;52639;51.180;20.460;2023-06-19T09:10:56;6.20;;;4.72;;
65863;SDS011;52639;51.180;20.460;2023-06-19T09:15:00;5.75;;;4.88;;
65863;SDS011;52639;51.180;20.460;2023-06-19T09:19:05;8.05;;;5.28;;
65863;SDS011;52639;51.180;20.460;2023-06-19T09:23:10;7.97;;;5.47;;
65863;SDS011;52639;51.180;20.460;2023-06-19T09:27:17;8.65;;;5.85;;
65863;SDS011;52639;51.180;20.460;2023-06-19T09:31:30;6.03;;;5.05;;
65863;SDS011;52639;51.180;20.460;2023-06-19T09:35:38;7.00;;;5.40;;
65863;SDS011;52639;51.180;20.460;2023-06-19T09:39:42;6.32;;;5.22;;
65863;SDS011;52639;51.180;20.460;2023-06-19T09:43:46;6.00;;;5.00;;
65863;SDS011;52639;51.180;20.460;2023-06-19T09:47:58;7.65;;;5.57;;
65863;SDS011;52639;51.180;20.460;2023-06-19T09:52:05;7.95;;;5.57;;
65863;SDS011;52639;51.180;20.460;2023-06-19T09:56:11;7.07;;;5.35;;
65863;SDS011;52639;51.180;20.460;2023-06-19T10:00:15;8.77;;;5.45;;
65863;SDS011;52639;51.180;20.460;2023-06-19T10:04:23;7.75;;;5.25;;
65863;SDS011;52639;51.180;20.460;2023-06-19T10:08:31;6.18;;;5.38;;
65863;SDS011;52639;51.180;20.460;2023-06-19T10:12:43;6.63;;;5.10;;
65863;SDS011;52639;51.180;20.460;2023-06-19T10:16:49;8.68;;;5.45;;
65863;SDS011;52639;51.180;20.460;2023-06-19T10:20:53;7.57;;;5.35;;
65863;SDS011;52639;51.180;20.460;2023-06-19T10:25:03;8.07;;;5.88;;
65863;SDS011;52639;51.180;20.460;2023-06-19T10:29:15;6.85;;;5.53;;
65863;SDS011;52639;51.180;20.460;2023-06-19T10:33:21;6.50;;;5.07;;
65863;SDS011;52639;51.180;20.460;2023-06-19T10:37:31;7.55;;;5.05;;
65863;SDS011;52639;51.180;20.460;2023-06-19T10:41:41;5.47;;;4.80;;
65863;SDS011;52639;51.180;20.460;2023-06-19T10:45:49;7.18;;;5.20;;
65863;SDS011;52639;51.180;20.460;2023-06-19T10:50:21;6.00;;;4.68;;
65863;SDS011;52639;51.180;20.460;2023-06-19T10:54:39;7.60;;;5.20;;
65863;SDS011;52639;51.180;20.460;2023-06-19T10:58:46;8.02;;;4.35;;
65863;SDS011;52639;51.180;20.460;2023-06-19T11:02:58;4.80;;;3.90;;
65863;SDS011;52639;51.180;20.460;2023-06-19T11:07:16;8.30;;;4.80;;
65863;SDS011;52639;51.180;20.460;2023-06-19T11:11:33;5.57;;;4.10;;
65863;SDS011;52639;51.180;20.460;2023-06-19T11:15:38;6.90;;;4.53;;
65863;SDS011;52639;51.180;20.460;2023-06-19T11:19:41;8.65;;;5.32;;
65863;SDS011;52639;51.180;20.460;2023-06-19T11:23:47;8.02;;;4.70;;
65863;SDS011;52639;51.180;20.460;2023-06-19T11:28:01;5.67;;;4.73;;
65863;SDS011;52639;51.180;20.460;2023-06-19T11:32:07;6.43;;;4.53;;
65863;SDS011;52639;51.180;20.460;2023-06-19T11:36:11;5.75;;;4.20;;
65863;SDS011;52639;51.180;20.460;2023-06-19T11:40:13;5.90;;;4.03;;
65863;SDS011;52639;51.180;20.460;2023-06-19T11:44:21;6.88;;;4.60;;
65863;SDS011;52639;51.180;20.460;2023-06-19T11:48:32;6.30;;;4.05;;
65863;SDS011;52639;51.180;20.460;2023-06-19T11:52:35;5.82;;;4.57;;
65863;SDS011;52639;51.180;20.460;2023-06-19T11:56:38;7.72;;;4.50;;
65863;SDS011;52639;51.180;20.460;2023-06-19T12:00:41;7.00;;;4.78;;
65863;SDS011;52639;51.180;20.460;2023-06-19T12:04:46;6.72;;;4.82;;
65863;SDS011;52639;51.180;20.460;2023-06-19T12:08:51;6.60;;;4.72;;
65863;SDS011;52639;51.180;20.460;2023-06-19T12:12:54;7.45;;;4.40;;
65863;SDS011;52639;51.180;20.460;2023-06-19T12:17:00;7.70;;;4.30;;
65863;SDS011;52639;51.180;20.460;2023-06-19T12:21:05;7.65;;;4.75;;
65863;SDS011;52639;51.180;20.460;2023-06-19T12:25:08;5.20;;;4.38;;
65863;SDS011;52639;51.180;20.460;2023-06-19T12:29:11;5.72;;;4.50;;
65863;SDS011;52639;51.180;20.460;2023-06-19T12:33:14;5.22;;;4.47;;
65863;SDS011;52639;51.180;20.460;2023-06-19T12:37:20;6.60;;;4.65;;
65863;SDS011;52639;51.180;20.460;2023-06-19T12:41:24;6.18;;;4.90;;
65863;SDS011;52639;51.180;20.460;2023-06-19T12:45:27;5.38;;;4.53;;
65863;SDS011;52639;51.180;20.460;2023-06-19T12:49:30;6.55;;;4.80;;
65863;SDS011;52639;51.180;20.460;2023-06-19T12:53:35;6.32;;;4.65;;
65863;SDS011;52639;51.180;20.460;2023-06-19T12:57:38;5.40;;;4.68;;
65863;SDS011;52639;51.180;20.460;2023-06-19T13:01:42;6.88;;;4.75;;
65863;SDS011;52639;51.180;20.460;2023-06-19T13:05:45;6.40;;;4.60;;
65863;SDS011;52639;51.180;20.460;2023-06-19T13:09:50;9.02;;;5.13;;
65863;SDS011;52639;51.180;20.460;2023-06-19T13:13:53;7.00;;;5.28;;
65863;SDS011;52639;51.180;20.460;2023-06-19T13:17:58;5.95;;;4.57;;
65863;SDS011;52639;51.180;20.460;2023-06-19T13:22:02;7.20;;;5.20;;
65863;SDS011;52639;51.180;20.460;2023-06-19T13:26:07;7.18;;;5.20;;
65863;SDS011;52639;51.180;20.460;2023-06-19T13:30:10;6.30;;;5.50;;
65863;SDS011;52639;51.180;20.460;2023-06-19T13:34:14;6.10;;;5.03;;
65863;SDS011;52639;51.180;20.460;2023-06-19T13:38:19;6.53;;;4.80;;
65863;SDS011;52639;51.180;20.460;2023-06-19T13:42:25;8.63;;;5.28;;
65863;SDS011;52639;51.180;20.460;2023-06-19T13:46:27;9.25;;;5.10;;
65863;SDS011;52639;51.180;20.460;2023-06-19T13:50:32;6.75;;;5.35;;
65863;SDS011;52639;51.180;20.460;2023-06-19T13:54:36;6.90;;;5.20;;
65863;SDS011;52639;51.180;20.460;2023-06-19T13:58:41;8.70;;;5.18;;
65863;SDS011;52639;51.180;20.460;2023-06-19T14:02:44;9.43;;;5.55;;
65863;SDS011;52639;51.180;20.460;2023-06-19T14:06:50;7.85;;;5.60;;
65863;SDS011;52639;51.180;20.460;2023-06-19T14:10:53;13.55;;;6.38;;
65863;SDS011;52639;51.180;20.460;2023-06-19T14:15:11;8.18;;;5.90;;
65863;SDS011;52639;51.180;20.460;2023-06-19T14:19:17;8.55;;;5.63;;
65863;SDS011;52639;51.180;20.460;2023-06-19T14:23:22;7.10;;;5.60;;
65863;SDS011;52639;51.180;20.460;2023-06-19T14:27:25;6.32;;;5.40;;
65863;SDS011;52639;51.180;20.460;2023-06-19T14:31:41;6.65;;;5.20;;
65863;SDS011;52639;51.180;20.460;2023-06-19T14:35:44;7.63;;;5.40;;
65863;SDS011;52639;51.180;20.460;2023-06-19T14:39:50;7.88;;;5.95;;
65863;SDS011;52639;51.180;20.460;2023-06-19T14:43:54;7.03;;;5.80;;
65863;SDS011;52639;51.180;20.460;2023-06-19T14:47:58;6.78;;;5.40;;
65863;SDS011;52639;51.180;20.460;2023-06-19T14:52:02;9.52;;;6.18;;
65863;SDS011;52639;51.180;20.460;2023-06-19T14:56:04;6.57;;;5.50;;
65863;SDS011;52639;51.180;20.460;2023-06-19T15:00:08;7.10;;;5.57;;
65863;SDS011;52639;51.180;20.460;2023-06-19T15:04:13;7.35;;;5.53;;
65863;SDS011;52639;51.180;20.460;2023-06-19T15:08:16;6.72;;;5.10;;
65863;SDS011;52639;51.180;20.460;2023-06-19T15:12:23;6.53;;;5.05;;
65863;SDS011;52639;51.180;20.460;2023-06-19T15:16:26;5.97;;;5.20;;
65863;SDS011;52639;51.180;20.460;2023-06-19T15:20:35;6.38;;;5.30;;
65863;SDS011;52639;51.180;20.460;2023-06-19T15:24:39;7.28;;;5.20;;
65863;SDS011;52639;51.180;20.460;2023-06-19T15:28:42;6.72;;;5.50;;
65863;SDS011;52639;51.180;20.460;2023-06-19T15:32:45;7.15;;;5.28;;
65863;SDS011;52639;51.180;20.460;2023-06-19T15:36:50;8.93;;;6.40;;
65863;SDS011;52639;51.180;20.460;2023-06-19T15:40:53;10.35;;;5.70;;
65863;SDS011;52639;51.180;20.460;2023-06-19T15:44:56;6.38;;;5.07;;
65863;SDS011;52639;51.180;20.460;2023-06-19T15:48:59;6.80;;;5.30;;
65863;SDS011;52639;51.180;20.460;2023-06-19T15:53:04;6.53;;;5.13;;
65863;SDS011;52639;51.180;20.460;2023-06-19T15:57:07;6.22;;;5.20;;
65863;SDS011;52639;51.180;20.460;2023-06-19T16:01:13;8.80;;;6.18;;
65863;SDS011;52639;51.180;20.460;2023-06-19T16:05:16;6.72;;;5.32;;
65863;SDS011;52639;51.180;20.460;2023-06-19T16:09:21;7.20;;;5.50;;
65863;SDS011;52639;51.180;20.460;2023-06-19T16:13:25;6.30;;;5.50;;
65863;SDS011;52639;51.180;20.460;2023-06-19T16:17:28;7.65;;;5.85;;
65863;SDS011;52639;51.180;20.460;2023-06-19T16:21:32;7.55;;;6.00;;
65863;SDS011;52639;51.180;20.460;2023-06-19T16:25:39;7.68;;;5.82;;
65863;SDS011;52639;51.180;20.460;2023-06-19T16:29:42;7.32;;;5.82;;
65863;SDS011;52639;51.180;20.460;2023-06-19T16:33:47;7.72;;;5.35;;
65863;SDS011;52639;51.180;20.460;2023-06-19T16:38:01;8.35;;;5.38;;
65863;SDS011;52639;51.180;20.460;2023-06-19T16:42:09;8.02;;;5.78;;
65863;SDS011;52639;51.180;20.460;2023-06-19T16:46:12;7.80;;;5.80;;
65863;SDS011;52639;51.180;20.460;2023-06-19T16:50:15;7.35;;;5.90;;
65863;SDS011;52639;51.180;20.460;2023-06-19T16:54:18;9.85;;;5.63;;
65863;SDS011;52639;51.180;20.460;2023-06-19T16:58:23;8.88;;;6.00;;
65863;SDS011;52639;51.180;20.460;2023-06-19T17:02:26;6.38;;;5.30;;
65863;SDS011;52639;51.180;20.460;2023-06-19T17:06:29;8.40;;;5.43;;
65863;SDS011;52639;51.180;20.460;2023-06-19T17:10:32;8.90;;;5.70;;
65863;SDS011;52639;51.180;20.460;2023-06-19T17:14:36;8.05;;;5.65;;
65863;SDS011;52639;51.180;20.460;2023-06-19T17:18:39;6.60;;;5.50;;
65863;SDS011;52639;51.180;20.460;2023-06-19T17:22:43;7.78;;;5.72;;
65863;SDS011;52639;51.180;20.460;2023-06-19T17:26:47;7.15;;;5.70;;
65863;SDS011;52639;51.180;20.460;2023-06-19T17:30:53;7.65;;;5.82;;
65863;SDS011;52639;51.180;20.460;2023-06-19T17:34:56;10.90;;;6.00;;
65863;SDS011;52639;51.180;20.460;2023-06-19T17:39:00;13.23;;;6.28;;
65863;SDS011;52639;51.180;20.460;2023-06-19T17:43:04;16.05;;;6.45;;
65863;SDS011;52639;51.180;20.460;2023-06-19T17:47:08;14.85;;;7.47;;
65863;SDS011;52639;51.180;20.460;2023-06-19T17:51:13;17.63;;;6.38;;
65863;SDS011;52639;51.180;20.460;2023-06-19T17:55:17;10.60;;;7.07;;
65863;SDS011;52639;51.180;20.460;2023-06-19T17:59:20;20.25;;;8.85;;
65863;SDS011;52639;51.180;20.460;2023-06-19T18:03:25;15.93;;;8.95;;
65863;SDS011;52639;51.180;20.460;2023-06-19T18:07:29;20.52;;;8.65;;
65863;SDS011;52639;51.180;20.460;2023-06-19T18:11:32;12.50;;;8.57;;
65863;SDS011;52639;51.180;20.460;2023-06-19T18:15:36;9.98;;;8.10;;
65863;SDS011;52639;51.180;20.460;2023-06-19T18:19:41;9.10;;;7.88;;
65863;SDS011;52639;51.180;20.460;2023-06-19T18:23:47;11.30;;;8.20;;
65863;SDS011;52639;51.180;20.460;2023-06-19T18:27:51;10.73;;;8.13;;
65863;SDS011;52639;51.180;20.460;2023-06-19T18:31:54;9.95;;;8.40;;
65863;SDS011;52639;51.180;20.460;2023-06-19T18:36:02;11.55;;;9.15;;
65863;SDS011;52639;51.180;20.460;2023-06-19T18:40:06;10.68;;;8.60;;
65863;SDS011;52639;51.180;20.460;2023-06-19T18:44:10;12.40;;;9.65;;
65863;SDS011;52639;51.180;20.460;2023-06-19T18:48:13;17.35;;;13.18;;
65863;SDS011;52639;51.180;20.460;2023-06-19T18:52:18;14.40;;;10.23;;
65863;SDS011;52639;51.180;20.460;2023-06-19T18:56:21;11.70;;;9.90;;
65863;SDS011;52639;51.180;20.460;2023-06-19T19:00:24;13.60;;;9.45;;
65863;SDS011;52639;51.180;20.460;2023-06-19T19:04:30;12.10;;;10.30;;
65863;SDS011;52639;51.180;20.460;2023-06-19T19:08:35;14.00;;;10.70;;
65863;SDS011;52639;51.180;20.460;2023-06-19T19:12:38;15.30;;;11.90;;
65863;SDS011;52639;51.180;20.460;2023-06-19T19:16:42;18.55;;;14.30;;
65863;SDS011;52639;51.180;20.460;2023-06-19T19:20:49;18.95;;;12.48;;
65863;SDS011;52639;51.180;20.460;2023-06-19T19:25:01;15.95;;;11.50;;
65863;SDS011;52639;51.180;20.460;2023-06-19T19:29:04;17.92;;;12.50;;
65863;SDS011;52639;51.180;20.460;2023-06-19T19:33:08;19.27;;;13.60;;
65863;SDS011;52639;51.180;20.460;2023-06-19T19:37:11;16.38;;;13.02;;
65863;SDS011;52639;51.180;20.460;2023-06-19T19:41:26;17.58;;;15.15;;
65863;SDS011;52639;51.180;20.460;2023-06-19T19:45:30;17.35;;;12.75;;
65863;SDS011;52639;51.180;20.460;2023-06-19T19:49:35;18.42;;;14.10;;
65863;SDS011;52639;51.180;20.460;2023-06-19T19:53:38;19.30;;;13.27;;
65863;SDS011;52639;51.180;20.460;2023-06-19T19:57:55;20.05;;;15.13;;
65863;SDS011;52639;51.180;20.460;2023-06-19T20:02:17;22.10;;;16.00;;
65863;SDS011;52639;51.180;20.460;2023-06-19T20:06:53;64.28;;;37.03;;
65863;SDS011;52639;51.180;20.460;2023-06-19T20:10:56;23.92;;;17.63;;
65863;SDS011;52639;51.180;20.460;2023-06-19T20:15:10;17.15;;;14.25;;
65863;SDS011;52639;51.180;20.460;2023-06-19T20:19:15;20.63;;;14.70;;
65863;SDS011;52639;51.180;20.460;2023-06-19T20:23:19;19.20;;;15.27;;
65863;SDS011;52639;51.180;20.460;2023-06-19T20:27:26;17.55;;;14.55;;
65863;SDS011;52639;51.180;20.460;2023-06-19T20:31:33;17.02;;;14.02;;
65863;SDS011;52639;51.180;20.460;2023-06-19T20:35:39;17.50;;;13.80;;
65863;SDS011;52639;51.180;20.460;2023-06-19T20:39:53;20.40;;;15.80;;
65863;SDS011;52639;51.180;20.460;2023-06-19T20:43:59;17.25;;;14.05;;
65863;SDS011;52639;51.180;20.460;2023-06-19T20:48:07;19.13;;;13.45;;
65863;SDS011;52639;51.180;20.460;2023-06-19T20:52:17;20.77;;;14.80;;
65863;SDS011;52639;51.180;20.460;2023-06-19T20:56:38;22.08;;;16.55;;
65863;SDS011;52639;51.180;20.460;2023-06-19T21:00:43;19.15;;;15.25;;
65863;SDS011;52639;51.180;20.460;2023-06-19T21:04:55;20.52;;;15.70;;
65863;SDS011;52639;51.180;20.460;2023-06-19T21:08:58;22.30;;;16.77;;
65863;SDS011;52639;51.180;20.460;2023-06-19T21:13:05;22.30;;;17.85;;
65863;SDS011;52639;51.180;20.460;2023-06-19T21:17:07;20.70;;;16.45;;
65863;SDS011;52639;51.180;20.460;2023-06-19T21:21:12;20.63;;;15.15;;
65863;SDS011;52639;51.180;20.460;2023-06-19T21:25:16;21.13;;;15.85;;
65863;SDS011;52639;51.180;20.460;2023-06-19T21:29:22;21.15;;;14.77;;
65863;SDS011;52639;51.180;20.460;2023-06-19T21:33:25;18.23;;;14.15;;
65863;SDS011;52639;51.180;20.460;2023-06-19T21:37:34;21.90;;;16.45;;
65863;SDS011;52639;51.180;20.460;2023-06-19T21:41:37;22.45;;;17.05;;
65863;SDS011;52639;51.180;20.460;2023-06-19T21:45:40;24.38;;;16.65;;
65863;SDS011;52639;51.180;20.460;2023-06-19T21:49:43;23.10;;;16.92;;
65863;SDS011;52639;51.180;20.460;2023-06-19T21:53:48;23.50;;;16.80;;
65863;SDS011;52639;51.180;20.460;2023-06-19T21:57:51;22.90;;;17.05;;
65863;SDS011;52639;51.180;20.460;2023-06-19T22:01:56;24.42;;;17.05;;
65863;SDS011;52639;51.180;20.460;2023-06-19T22:06:01;22.60;;;17.15;;
65863;SDS011;52639;51.180;20.460;2023-06-19T22:10:07;33.88;;;18.85;;
65863;SDS011;52639;51.180;20.460;2023-06-19T22:14:14;24.23;;;18.25;;
65863;SDS011;52639;51.180;20.460;2023-06-19T22:18:17;21.65;;;16.92;;
65863;SDS011;52639;51.180;20.460;2023-06-19T22:22:20;22.23;;;16.27;;
65863;SDS011;52639;51.180;20.460;2023-06-19T22:26:24;24.75;;;17.20;;
65863;SDS011;52639;51.180;20.460;2023-06-19T22:30:27;26.63;;;18.20;;
65863;SDS011;52639;51.180;20.460;2023-06-19T22:34:33;26.05;;;17.77;;
65863;SDS011;52639;51.180;20.460;2023-06-19T22:38:37;24.95;;;17.80;;
65863;SDS011;52639;51.180;20.460;2023-06-19T22:42:46;25.52;;;17.95;;
65863;SDS011;52639;51.180;20.460;2023-06-19T22:46:50;23.45;;;16.88;;
65863;SDS011;52639;51.180;20.460;2023-06-19T22:50:57;24.40;;;16.92;;
65863;SDS011;52639;51.180;20.460;2023-06-19T22:55:02;24.13;;;17.25;;
65863;SDS011;52639;51.180;20.460;2023-06-19T22:59:07;26.98;;;17.55;;
65863;SDS011;52639;51.180;20.460;2023-06-19T23:03:12;20.73;;;15.50;;
65863;SDS011;52639;51.180;20.460;2023-06-19T23:07:18;25.15;;;16.52;;
65863;SDS011;52639;51.180;20.460;2023-06-19T23:11:22;25.75;;;18.08;;
65863;SDS011;52639;51.180;20.460;2023-06-19T23:15:30;28.27;;;18.15;;
65863;SDS011;52639;51.180;20.460;2023-06-19T23:19:36;24.85;;;17.70;;
65863;SDS011;52639;51.180;20.460;2023-06-19T23:23:47;26.40;;;17.75;;
65863;SDS011;52639;51.180;20.460;2023-06-19T23:27:50;25.65;;;18.23;;
65863;SDS011;52639;51.180;20.460;2023-06-19T23:31:57;23.80;;;17.20;;
65863;SDS011;52639;51.180;20.460;2023-06-19T23:36:01;26.20;;;18.17;;
65863;SDS011;52639;51.180;20.460;2023-06-19T23:40:09;29.25;;;18.58;;
65863;SDS011;52639;51.180;20.460;2023-06-19T23:44:18;26.35;;;17.73;;
65863;SDS011;52639;51.180;20.460;2023-06-19T23:48:24;27.17;;;18.58;;
65863;SDS011;52639;51.180;20.460;2023-06-19T23:52:31;24.30;;;17.50;;
65863;SDS011;52639;51.180;20.460;2023-06-19T23:56:38;24.33;;;17.15;;
